Time;durP1;ratioP1;P1;durP2;ratioP2;P2;SDS_P1;SDS_P2;PMS_P1;PMS_P2;Temp;Humidity;BMP_temperature;BMP_pressure;BME280_temperature;BME280_humidity;BME280_pressure;Samples;Min_cycle;Max_cycle;Signal;HPM_P1;HPM_P2
2022/10/28 00:01:00;;;;;;;9.13;7.00;;;14.20;1.00;;;;;;4932783;29;20449;-48
2022/10/28 00:03:26;;;;;;;13.03;7.80;;;14.20;1.00;;;;;;4931864;29;20446;-47
2022/10/28 00:05:53;;;;;;;10.10;7.40;;;14.20;1.00;;;;;;4929471;29;20521;-48
2022/10/28 00:08:19;;;;;;;10.33;7.73;;;14.10;1.00;;;;;;4929520;29;20202;-48
2022/10/28 00:10:44;;;;;;;10.93;7.30;;;14.10;1.00;;;;;;4933727;29;20496;-48
2022/10/28 00:13:10;;;;;;;10.53;7.87;;;14.10;1.00;;;;;;4933658;29;20296;-48
2022/10/28 00:15:35;;;;;;;12.10;7.83;;;14.00;1.00;;;;;;4931689;29;20218;-48
2022/10/28 00:18:01;;;;;;;17.63;7.13;;;14.00;1.00;;;;;;4934032;29;20186;-47
2022/10/28 00:20:29;;;;;;;9.33;7.50;;;14.00;1.00;;;;;;4933732;29;20206;-47
2022/10/28 00:22:54;;;;;;;15.50;7.33;;;14.10;1.00;;;;;;4932882;29;20606;-47
2022/10/28 00:25:23;;;;;;;15.23;7.50;;;14.00;1.00;;;;;;4933305;29;20483;-47
2022/10/28 00:27:50;;;;;;;10.23;6.83;;;14.10;1.00;;;;;;4933322;29;20205;-46
2022/10/28 00:30:16;;;;;;;13.70;7.30;;;14.00;1.00;;;;;;4932223;29;20474;-46
2022/10/28 00:32:42;;;;;;;11.13;6.83;;;14.00;1.00;;;;;;4934189;29;20414;-47
2022/10/28 00:35:07;;;;;;;10.13;7.10;;;14.10;1.00;;;;;;4926702;29;20193;-47
2022/10/28 00:37:33;;;;;;;16.20;7.40;;;14.10;1.00;;;;;;4933458;29;20570;-47
2022/10/28 00:39:58;;;;;;;12.97;7.33;;;14.10;1.00;;;;;;4932972;29;20202;-47
2022/10/28 00:42:25;;;;;;;8.10;6.60;;;14.00;1.00;;;;;;4933928;29;20190;-48
2022/10/28 00:45:03;;;;;;;16.90;7.27;;;14.00;1.00;;;;;;4932867;29;20194;-47
2022/10/28 00:47:35;;;;;;;11.97;6.87;;;14.00;1.00;;;;;;4931127;28;20490;-48
2022/10/28 00:50:27;;;;;;;17.53;7.70;;;14.00;1.00;;;;;;4932747;29;20478;-47
2022/10/28 00:53:03;;;;;;;9.90;6.10;;;14.00;1.00;;;;;;4930401;29;20542;-48
2022/10/28 00:55:30;;;;;;;10.87;6.50;;;14.00;1.00;;;;;;4932600;29;20449;-47
2022/10/28 00:57:57;;;;;;;10.07;6.50;;;13.90;1.00;;;;;;4932463;29;20422;-46
2022/10/28 01:00:24;;;;;;;11.40;6.60;;;13.90;1.00;;;;;;4946861;29;20530;-46
2022/10/28 01:02:50;;;;;;;12.73;6.83;;;13.80;1.00;;;;;;4930872;29;20522;-47
2022/10/28 01:05:20;;;;;;;11.20;6.90;;;13.80;1.00;;;;;;4931603;29;20458;-47
2022/10/28 01:07:46;;;;;;;15.43;7.30;;;13.80;1.00;;;;;;4933993;29;20218;-48
2022/10/28 01:10:13;;;;;;;10.73;7.30;;;13.80;1.00;;;;;;4932906;29;20509;-48
2022/10/28 01:13:16;;;;;;;8.10;6.40;;;13.80;1.00;;;;;;4932579;29;21049;-48
2022/10/28 01:15:57;;;;;;;10.57;6.53;;;13.90;1.00;;;;;;4932517;29;20554;-47
2022/10/28 01:18:26;;;;;;;13.03;6.40;;;13.90;1.00;;;;;;4932926;29;20456;-47
2022/10/28 01:21:00;;;;;;;12.63;6.90;;;13.90;1.00;;;;;;4932757;29;20477;-46
2022/10/28 01:23:44;;;;;;;12.77;7.30;;;14.00;1.00;;;;;;4933441;29;20437;-54
2022/10/28 01:26:29;;;;;;;11.67;6.50;;;14.00;1.00;;;;;;4933180;29;20442;-47
2022/10/28 01:29:13;;;;;;;11.00;6.80;;;14.00;1.00;;;;;;4932494;29;20481;-47
2022/10/28 01:31:57;;;;;;;11.80;7.23;;;14.00;1.00;;;;;;4932441;29;20449;-48
2022/10/28 01:34:58;;;;;;;11.60;6.53;;;14.00;1.00;;;;;;4932857;29;21079;-47
2022/10/28 01:38:17;;;;;;;10.10;7.20;;;14.00;1.00;;;;;;4911108;29;20462;-47
2022/10/28 01:40:56;;;;;;;13.50;6.87;;;14.10;1.00;;;;;;4927606;29;20454;-47
2022/10/28 01:43:35;;;;;;;9.33;6.60;;;14.10;1.00;;;;;;4932491;29;20549;-47
2022/10/28 01:46:04;;;;;;;7.97;6.07;;;14.10;1.00;;;;;;4922839;29;20931;-47
2022/10/28 01:48:44;;;;;;;9.17;6.60;;;14.00;1.00;;;;;;4914242;29;20912;-47
2022/10/28 01:51:23;;;;;;;18.03;6.93;;;14.00;1.00;;;;;;4929274;29;20445;-48
2022/10/28 01:53:52;;;;;;;15.60;7.50;;;14.00;1.00;;;;;;4930297;29;20795;-47
2022/10/28 01:56:25;;;;;;;9.47;6.50;;;14.00;1.00;;;;;;4930417;28;20595;-47
2022/10/28 01:58:54;;;;;;;10.50;7.03;;;14.00;1.00;;;;;;4935552;29;20446;-47
2022/10/28 02:01:22;;;;;;;9.57;6.43;;;14.00;1.00;;;;;;4935024;29;20450;-47
2022/10/28 02:03:48;;;;;;;15.30;7.33;;;14.00;1.00;;;;;;4930941;29;20812;-49
2022/10/28 02:06:21;;;;;;;11.27;7.27;;;13.90;1.00;;;;;;4935399;29;20449;-48
2022/10/28 02:09:20;;;;;;;15.20;7.13;;;13.90;1.00;;;;;;4935823;29;20536;-47
2022/10/28 02:12:05;;;;;;;11.40;6.53;;;13.90;1.00;;;;;;4936475;29;20489;-47
2022/10/28 02:14:34;;;;;;;9.03;6.53;;;14.00;1.00;;;;;;4933455;29;20442;-47
2022/10/28 02:17:18;;;;;;;14.80;7.37;;;14.00;1.00;;;;;;4935676;29;20453;-46
2022/10/28 02:20:19;;;;;;;15.63;7.70;;;14.10;1.00;;;;;;4931895;29;20484;-46
2022/10/28 02:22:56;;;;;;;12.83;5.90;;;14.10;1.00;;;;;;4935484;29;20995;-47
2022/10/28 02:25:30;;;;;;;11.67;7.20;;;14.10;1.00;;;;;;4935083;28;20453;-47
2022/10/28 02:28:01;;;;;;;12.73;6.27;;;14.10;1.00;;;;;;4934603;29;20459;-47
2022/10/28 02:30:38;;;;;;;13.27;7.50;;;14.10;1.00;;;;;;4934655;29;20474;-47
2022/10/28 02:33:09;;;;;;;23.63;8.30;;;14.10;1.00;;;;;;4928249;29;20556;-46
2022/10/28 02:35:40;;;;;;;16.10;7.20;;;14.00;1.00;;;;;;4918576;29;20453;-47
2022/10/28 02:38:12;;;;;;;9.73;6.13;;;14.00;1.00;;;;;;4921807;29;20450;-48
2022/10/28 02:40:39;;;;;;;15.00;8.20;;;13.90;1.00;;;;;;4920103;29;20513;-47
2022/10/28 02:43:08;;;;;;;12.27;7.00;;;13.90;1.00;;;;;;4921391;29;20843;-47
2022/10/28 02:45:38;;;;;;;11.80;7.20;;;13.80;1.00;;;;;;4922231;29;20500;-47
2022/10/28 02:48:26;;;;;;;11.57;7.60;;;13.70;1.00;;;;;;4922035;29;20497;-47
2022/10/28 02:51:26;;;;;;;12.50;7.03;;;13.70;1.00;;;;;;4928201;29;20471;-48
2022/10/28 02:53:58;;;;;;;13.90;7.30;;;13.60;1.00;;;;;;4920431;29;20460;-47
2022/10/28 02:56:23;;;;;;;14.77;8.00;;;13.50;1.00;;;;;;4920374;29;20446;-49
2022/10/28 02:58:49;;;;;;;9.40;6.83;;;13.40;1.00;;;;;;4920746;29;20786;-49
2022/10/28 03:01:15;;;;;;;9.63;7.33;;;13.40;1.00;;;;;;4920489;29;20660;-49
2022/10/28 03:03:40;;;;;;;13.30;7.10;;;13.30;1.00;;;;;;4920350;29;20191;-49
2022/10/28 03:06:06;;;;;;;12.07;7.30;;;13.20;1.00;;;;;;4920476;29;20194;-49
2022/10/28 03:08:32;;;;;;;13.50;7.43;;;13.10;1.00;;;;;;4919926;29;20265;-49
2022/10/28 03:10:57;;;;;;;12.23;7.97;;;13.10;1.00;;;;;;4920995;29;20246;-49
2022/10/28 03:13:23;;;;;;;11.43;7.00;;;13.00;1.00;;;;;;4921407;29;20190;-49
2022/10/28 03:15:49;;;;;;;11.97;7.67;;;13.00;1.00;;;;;;4920541;29;20196;-49
2022/10/28 03:18:14;;;;;;;17.53;8.70;;;13.00;1.00;;;;;;4920292;29;20195;-49
2022/10/28 03:20:40;;;;;;;13.00;7.83;;;13.00;1.00;;;;;;4919412;29;20202;-47
2022/10/28 03:23:05;;;;;;;14.90;8.73;;;13.00;1.00;;;;;;4920252;29;20209;-47
2022/10/28 03:25:31;;;;;;;14.20;8.83;;;13.00;1.00;;;;;;4920899;29;20709;-48
2022/10/28 03:27:57;;;;;;;17.23;8.57;;;13.00;1.00;;;;;;4919995;29;20209;-47
2022/10/28 03:30:22;;;;;;;13.63;9.03;;;13.00;1.00;;;;;;4919772;29;20243;-47
2022/10/28 03:32:48;;;;;;;13.30;9.27;;;13.00;1.00;;;;;;4919841;29;20270;-47
2022/10/28 03:35:13;;;;;;;16.13;8.17;;;13.00;1.00;;;;;;4920590;29;20221;-48
2022/10/28 03:37:43;;;;;;;12.77;8.43;;;13.00;1.00;;;;;;4921641;29;20676;-47
2022/10/28 03:40:10;;;;;;;14.53;8.10;;;13.00;1.00;;;;;;4918420;29;20617;-48
2022/10/28 03:42:35;;;;;;;13.83;8.70;;;13.00;1.00;;;;;;4921411;29;20458;-48
2022/10/28 03:45:01;;;;;;;17.27;8.60;;;13.00;1.00;;;;;;4920482;29;20929;-48
2022/10/28 03:47:27;;;;;;;13.83;8.07;;;13.00;1.00;;;;;;4920220;29;20576;-48
2022/10/28 03:49:52;;;;;;;12.50;8.60;;;13.00;1.00;;;;;;4921206;29;20230;-46
2022/10/28 03:52:18;;;;;;;13.27;7.90;;;13.00;1.00;;;;;;4919681;29;20195;-47
2022/10/28 03:54:44;;;;;;;15.57;8.70;;;13.10;1.00;;;;;;4918601;29;20198;-46
2022/10/28 03:57:09;;;;;;;15.23;8.20;;;13.00;1.00;;;;;;4917948;29;20598;-46
2022/10/28 03:59:35;;;;;;;17.27;8.23;;;13.10;1.00;;;;;;4919298;29;20230;-46
2022/10/28 04:02:00;;;;;;;14.30;8.70;;;13.10;1.00;;;;;;4919393;29;20201;-47
2022/10/28 04:04:26;;;;;;;12.33;8.50;;;13.10;1.00;;;;;;4918921;29;20703;-47
2022/10/28 04:06:51;;;;;;;13.80;8.80;;;13.10;1.00;;;;;;4919464;29;20205;-48
2022/10/28 04:09:17;;;;;;;13.37;8.30;;;13.10;1.00;;;;;;4918332;29;20269;-47
2022/10/28 04:11:43;;;;;;;15.47;9.07;;;13.10;1.00;;;;;;4920097;29;20266;-47
2022/10/28 04:14:08;;;;;;;19.20;9.17;;;13.10;1.00;;;;;;4919313;29;20237;-47
2022/10/28 04:16:34;;;;;;;12.87;8.90;;;13.10;1.00;;;;;;4920073;29;20198;-47
2022/10/28 04:18:59;;;;;;;16.97;8.73;;;13.10;1.00;;;;;;4918960;29;20194;-47
2022/10/28 04:21:25;;;;;;;18.10;9.23;;;13.20;1.00;;;;;;4921051;29;20306;-47
2022/10/28 04:23:50;;;;;;;13.83;8.37;;;13.20;1.00;;;;;;4920517;29;20216;-47
2022/10/28 04:26:16;;;;;;;18.13;8.73;;;13.20;1.00;;;;;;4919235;29;20675;-50
2022/10/28 04:28:42;;;;;;;14.90;7.70;;;13.20;1.00;;;;;;4919490;29;22036;-50
2022/10/28 04:31:08;;;;;;;12.03;8.40;;;13.20;1.00;;;;;;4921294;29;20242;-50
2022/10/28 04:33:34;;;;;;;13.00;8.60;;;13.20;1.00;;;;;;4919559;29;20932;-50
2022/10/28 04:36:00;;;;;;;13.37;8.00;;;13.20;1.00;;;;;;4920160;29;20518;-50
2022/10/28 04:38:25;;;;;;;14.60;8.90;;;13.20;1.00;;;;;;4917824;29;20198;-49
2022/10/28 04:40:51;;;;;;;20.90;9.43;;;13.20;1.00;;;;;;4920106;29;20715;-50
2022/10/28 04:43:17;;;;;;;15.67;8.90;;;13.20;1.00;;;;;;4919943;29;20199;-50
2022/10/28 04:45:44;;;;;;;23.73;8.80;;;13.20;1.00;;;;;;4919076;29;20193;-49
2022/10/28 04:48:09;;;;;;;13.50;8.67;;;13.20;1.00;;;;;;4920151;29;20249;-49
2022/10/28 04:50:35;;;;;;;16.83;9.17;;;13.20;1.00;;;;;;4918970;29;20837;-49
2022/10/28 04:53:01;;;;;;;18.67;9.00;;;13.20;1.00;;;;;;4919767;29;20191;-49
2022/10/28 04:55:26;;;;;;;14.80;9.03;;;13.20;1.00;;;;;;4918988;29;20449;-50
2022/10/28 04:57:57;;;;;;;15.37;8.80;;;13.20;1.00;;;;;;4918273;29;20223;-49
2022/10/28 05:00:23;;;;;;;20.87;9.23;;;13.20;1.00;;;;;;4918893;29;20274;-50
2022/10/28 05:02:49;;;;;;;12.00;8.87;;;13.20;1.00;;;;;;4918990;29;20451;-50
2022/10/28 05:05:16;;;;;;;16.03;8.47;;;13.20;1.00;;;;;;4917598;29;21058;-50
2022/10/28 05:07:41;;;;;;;12.80;8.80;;;13.10;1.00;;;;;;4918195;29;20201;-50
2022/10/28 05:10:07;;;;;;;16.47;8.40;;;13.10;1.00;;;;;;4918441;29;20481;-50
2022/10/28 05:12:33;;;;;;;19.90;9.50;;;13.20;1.00;;;;;;4919638;29;20194;-50
2022/10/28 05:14:58;;;;;;;18.43;9.33;;;13.20;1.00;;;;;;4919601;29;20504;-49
2022/10/28 05:17:24;;;;;;;20.47;9.13;;;13.20;1.00;;;;;;4918632;29;20585;-50
2022/10/28 05:19:50;;;;;;;15.30;9.37;;;13.20;1.00;;;;;;4919875;29;20199;-49
2022/10/28 05:22:16;;;;;;;13.83;8.73;;;13.20;1.00;;;;;;4919717;29;20293;-48
2022/10/28 05:24:41;;;;;;;16.17;9.07;;;13.20;1.00;;;;;;4919117;29;21380;-48
2022/10/28 05:27:07;;;;;;;15.13;9.60;;;13.20;1.00;;;;;;4918436;29;20214;-48
2022/10/28 05:29:32;;;;;;;18.70;10.80;;;13.10;1.00;;;;;;4932967;29;20301;-47
2022/10/28 05:31:58;;;;;;;15.53;9.07;;;13.10;1.00;;;;;;4920144;29;20195;-47
2022/10/28 05:34:24;;;;;;;17.10;8.83;;;13.10;1.00;;;;;;4922555;29;20186;-47
2022/10/28 05:36:50;;;;;;;17.50;9.70;;;13.10;1.00;;;;;;4922274;29;21244;-47
2022/10/28 05:39:16;;;;;;;19.13;9.80;;;13.10;1.00;;;;;;4930685;29;20190;-48
2022/10/28 05:41:41;;;;;;;19.40;10.43;;;13.10;1.00;;;;;;4936276;29;20198;-48
2022/10/28 05:44:07;;;;;;;19.13;10.77;;;13.00;1.00;;;;;;4935174;29;20440;-47
2022/10/28 05:46:33;;;;;;;17.83;10.70;;;13.00;1.00;;;;;;4936510;29;20200;-48
2022/10/28 05:48:58;;;;;;;23.90;9.93;;;13.00;1.00;;;;;;4924430;29;20246;-48
2022/10/28 05:51:24;;;;;;;17.70;9.57;;;13.00;1.00;;;;;;4931056;29;20628;-50
2022/10/28 05:53:50;;;;;;;16.60;10.10;;;13.00;1.00;;;;;;4932496;29;20190;-50
2022/10/28 05:56:17;;;;;;;17.27;10.40;;;13.00;1.00;;;;;;4931122;29;20201;-50
2022/10/28 05:58:42;;;;;;;19.60;9.93;;;13.00;1.00;;;;;;4936680;29;20802;-50
2022/10/28 06:01:08;;;;;;;18.03;10.87;;;13.00;1.00;;;;;;4927684;29;20493;-50
2022/10/28 06:03:34;;;;;;;16.77;9.13;;;12.90;1.00;;;;;;4923516;29;20264;-50
2022/10/28 06:05:59;;;;;;;18.97;10.53;;;12.90;1.00;;;;;;4921664;29;20190;-50
2022/10/28 06:08:26;;;;;;;18.87;10.23;;;12.90;1.00;;;;;;4925114;29;20202;-50
2022/10/28 06:10:53;;;;;;;22.10;9.37;;;12.90;1.00;;;;;;4934348;29;20228;-50
2022/10/28 06:13:19;;;;;;;23.17;9.87;;;12.90;1.00;;;;;;4932348;29;20494;-50
2022/10/28 06:15:50;;;;;;;17.40;10.87;;;12.80;1.00;;;;;;4923423;29;20441;-50
2022/10/28 06:18:15;;;;;;;19.37;11.37;;;12.80;1.00;;;;;;4922071;29;20426;-50
2022/10/28 06:20:41;;;;;;;23.10;10.93;;;12.80;1.00;;;;;;4921851;29;20446;-50
2022/10/28 06:23:07;;;;;;;15.80;10.73;;;12.80;1.00;;;;;;4921852;29;20208;-50
2022/10/28 06:25:32;;;;;;;24.13;11.13;;;12.80;1.00;;;;;;4923088;29;20199;-50
2022/10/28 06:28:01;;;;;;;21.40;10.53;;;12.80;1.00;;;;;;4924370;29;20849;-50
2022/10/28 06:30:27;;;;;;;19.57;11.10;;;12.80;1.00;;;;;;4936099;29;20217;-49
2022/10/28 06:32:56;;;;;;;23.80;11.73;;;12.80;1.00;;;;;;4922774;29;20438;-51
2022/10/28 06:35:22;;;;;;;23.10;11.43;;;12.90;1.00;;;;;;4924424;29;20948;-50
2022/10/28 06:37:47;;;;;;;22.37;11.60;;;12.90;1.00;;;;;;4933297;29;20473;-51
2022/10/28 06:40:13;;;;;;;23.73;11.30;;;12.90;1.00;;;;;;4935823;29;20434;-51
2022/10/28 06:42:39;;;;;;;25.63;11.20;;;12.90;1.00;;;;;;4933799;29;20205;-50
2022/10/28 06:45:05;;;;;;;24.47;12.10;;;13.00;1.00;;;;;;4934980;29;20277;-50
2022/10/28 06:47:31;;;;;;;35.30;12.33;;;13.00;1.00;;;;;;4933833;29;20581;-50
2022/10/28 06:49:56;;;;;;;19.63;10.70;;;13.00;1.00;;;;;;4932678;29;20480;-51
2022/10/28 06:52:22;;;;;;;20.20;11.20;;;13.00;1.00;;;;;;4933904;29;20195;-50
2022/10/28 06:54:47;;;;;;;18.73;10.40;;;13.00;1.00;;;;;;4932245;29;20190;-50
2022/10/28 06:57:13;;;;;;;18.40;11.13;;;13.10;1.00;;;;;;4930579;29;20520;-50
2022/10/28 06:59:39;;;;;;;16.50;10.23;;;13.10;1.00;;;;;;4932457;29;20198;-50
2022/10/28 07:02:05;;;;;;;25.57;11.27;;;13.20;1.00;;;;;;4930558;29;20210;-50
2022/10/28 07:04:32;;;;;;;19.40;10.43;;;13.20;1.00;;;;;;4931824;29;20273;-50
2022/10/28 07:06:57;;;;;;;19.03;11.53;;;13.30;1.00;;;;;;4935020;29;20455;-50
2022/10/28 07:09:23;;;;;;;24.13;12.00;;;13.30;1.00;;;;;;4934684;29;21051;-50
2022/10/28 07:11:49;;;;;;;16.63;10.57;;;13.40;1.00;;;;;;4935488;29;20955;-51
2022/10/28 07:14:15;;;;;;;15.87;10.20;;;13.40;1.00;;;;;;4935375;29;20191;-50
2022/10/28 07:16:41;;;;;;;16.30;10.27;;;13.50;1.00;;;;;;4935403;29;20402;-50
2022/10/28 07:19:07;;;;;;;22.70;10.80;;;13.60;1.00;;;;;;4935184;29;20531;-51
2022/10/28 07:21:33;;;;;;;20.17;9.73;;;13.60;1.00;;;;;;4934116;29;20430;-50
2022/10/28 07:23:59;;;;;;;17.20;9.30;;;13.70;1.00;;;;;;4935218;29;20437;-50
2022/10/28 07:26:25;;;;;;;17.13;10.30;;;13.70;1.00;;;;;;4934787;29;20438;-49
2022/10/28 07:28:51;;;;;;;16.90;9.97;;;13.80;1.00;;;;;;4934765;29;20515;-49
2022/10/28 07:31:17;;;;;;;17.57;10.00;;;13.80;1.00;;;;;;4935232;29;20186;-49
2022/10/28 07:33:42;;;;;;;18.03;10.37;;;13.90;1.00;;;;;;4935022;29;20189;-49
2022/10/28 07:36:09;;;;;;;17.93;9.90;;;14.10;1.00;;;;;;4931275;29;20186;-49
2022/10/28 07:38:35;;;;;;;22.53;10.73;;;14.10;1.00;;;;;;4934826;29;20195;-47
2022/10/28 07:41:05;;;;;;;13.60;9.13;;;14.20;1.00;;;;;;4934920;29;20418;-48
2022/10/28 07:43:37;;;;;;;19.00;9.83;;;14.30;1.00;;;;;;4934836;29;20474;-49
2022/10/28 07:46:04;;;;;;;20.00;9.50;;;14.30;1.00;;;;;;4934652;29;20410;-49
2022/10/28 07:48:29;;;;;;;15.00;9.47;;;14.40;1.00;;;;;;4934591;29;20560;-49
2022/10/28 07:50:58;;;;;;;17.73;9.60;;;14.60;1.00;;;;;;4934618;29;20470;-49
2022/10/28 07:53:24;;;;;;;21.57;9.40;;;14.80;1.00;;;;;;4934748;29;20178;-48
2022/10/28 07:55:56;;;;;;;13.00;8.43;;;15.00;1.00;;;;;;4934101;29;20426;-48
2022/10/28 07:58:22;;;;;;;16.07;9.03;;;15.30;1.00;;;;;;4934919;29;20220;-48
2022/10/28 08:00:48;;;;;;;15.70;8.50;;;15.50;1.00;;;;;;4934468;29;20505;-47
2022/10/28 08:03:14;;;;;;;16.33;8.00;;;15.60;1.00;;;;;;4934569;29;20222;-48
2022/10/28 08:05:39;;;;;;;14.30;8.27;;;15.60;1.00;;;;;;4934507;29;20273;-48
2022/10/28 08:08:05;;;;;;;11.63;7.40;;;15.60;99.90;;;;;;4934357;29;20501;-47
2022/10/28 08:10:31;;;;;;;29.57;9.10;;;15.70;99.90;;;;;;4934324;29;20233;-48
2022/10/28 08:12:59;;;;;;;14.83;8.20;;;15.80;99.90;;;;;;4934614;29;20186;-48
2022/10/28 08:15:27;;;;;;;13.33;7.50;;;16.10;99.90;;;;;;4934378;29;20174;-45
2022/10/28 08:17:53;;;;;;;11.40;7.33;;;16.40;99.90;;;;;;4934325;29;20470;-45
2022/10/28 08:20:19;;;;;;;14.77;7.70;;;16.40;99.90;;;;;;4934138;29;20422;-45
2022/10/28 08:22:44;;;;;;;12.97;8.20;;;16.30;29.70;;;;;;4934067;29;20194;-45
2022/10/28 08:25:10;;;;;;;10.50;7.27;;;16.30;1.00;;;;;;4934118;29;20190;-45
2022/10/28 08:27:36;;;;;;;20.33;7.97;;;16.20;1.00;;;;;;4934509;29;20411;-45
2022/10/28 08:30:02;;;;;;;16.97;8.50;;;16.20;1.00;;;;;;4934004;29;20315;-45
2022/10/28 08:32:27;;;;;;;16.03;8.00;;;16.20;1.00;;;;;;4934012;29;20932;-45
2022/10/28 08:34:53;;;;;;;18.93;8.37;;;16.20;1.00;;;;;;4932755;29;20500;-45
2022/10/28 08:37:18;;;;;;;19.03;8.70;;;16.20;1.00;;;;;;4933964;29;20186;-45
2022/10/28 08:39:44;;;;;;;15.63;7.57;;;16.20;1.00;;;;;;4934048;29;20233;-46
2022/10/28 08:42:22;;;;;;;14.40;8.43;;;16.20;1.00;;;;;;4933961;29;20186;-46
2022/10/28 08:45:16;;;;;;;11.30;7.77;;;16.30;1.00;;;;;;4934189;29;20194;-45
2022/10/28 08:48:13;;;;;;;15.80;7.00;;;16.30;1.00;;;;;;4933884;29;20493;-46
2022/10/28 08:51:00;;;;;;;19.30;7.40;;;16.40;1.00;;;;;;4933306;29;21035;-46
2022/10/28 08:53:34;;;;;;;14.93;7.50;;;16.50;1.00;;;;;;4914873;29;20480;-46
2022/10/28 08:56:36;;;;;;;15.00;7.73;;;16.60;1.00;;;;;;4921013;29;20442;-46
2022/10/28 08:59:12;;;;;;;13.40;7.37;;;16.60;1.00;;;;;;4933814;29;20413;-49
2022/10/28 09:01:48;;;;;;;13.97;7.00;;;16.70;99.90;;;;;;4933770;29;20412;-45
2022/10/28 09:04:26;;;;;;;17.60;6.53;;;16.80;99.90;;;;;;4933738;29;20403;-46
2022/10/28 09:06:52;;;;;;;12.97;7.70;;;17.00;99.90;;;;;;4933957;29;20483;-45
2022/10/28 09:09:21;;;;;;;14.70;6.87;;;17.10;70.80;;;;;;4937646;29;20543;-46
2022/10/28 09:12:15;;;;;;;13.70;7.67;;;17.10;97.40;;;;;;4937528;29;20430;-46
2022/10/28 09:14:52;;;;;;;11.83;7.60;;;17.20;99.90;;;;;;4937806;29;20418;-45
2022/10/28 09:17:23;;;;;;;13.53;7.30;;;17.30;1.00;;;;;;4937432;29;20424;-46
2022/10/28 09:19:51;;;;;;;17.40;7.20;;;17.40;1.00;;;;;;4937230;29;20955;-46
2022/10/28 09:22:41;;;;;;;18.30;6.80;;;17.50;99.90;;;;;;4937358;29;20801;-46
2022/10/28 09:25:22;;;;;;;16.03;6.80;;;17.60;99.90;;;;;;4937713;29;20772;-47
2022/10/28 09:28:32;;;;;;;12.80;6.87;;;17.70;1.00;;;;;;4937421;29;20847;-46
2022/10/28 09:31:12;;;;;;;13.07;6.77;;;17.90;1.00;;;;;;4936530;29;20890;-46
2022/10/28 09:33:54;;;;;;;19.37;7.20;;;18.00;1.00;;;;;;4937064;29;20425;-46
2022/10/28 09:36:30;;;;;;;17.67;7.33;;;18.10;1.00;;;;;;4936889;29;20445;-46
2022/10/28 09:38:57;;;;;;;15.20;7.13;;;18.20;99.90;;;;;;4936885;29;20449;-46
2022/10/28 09:41:27;;;;;;;12.20;6.23;;;18.30;1.00;;;;;;4936617;29;20948;-46
2022/10/28 09:44:13;;;;;;;12.13;6.70;;;18.40;99.90;;;;;;4935663;29;20939;-46
2022/10/28 09:46:39;;;;;;;21.47;6.70;;;18.60;99.90;;;;;;4936882;29;20433;-46
2022/10/28 09:49:13;;;;;;;13.90;6.20;;;18.80;10.20;;;;;;4924143;29;20459;-46
2022/10/28 09:51:57;;;;;;;10.87;6.43;;;18.90;99.90;;;;;;4936820;29;20469;-45
2022/10/28 09:54:36;;;;;;;18.30;6.20;;;19.10;1.00;;;;;;4926629;29;20424;-46
2022/10/28 09:57:03;;;;;;;8.67;5.17;;;19.30;99.90;;;;;;4917050;29;21266;-46
2022/10/28 09:59:29;;;;;;;9.10;4.00;;;19.60;1.00;;;;;;4917568;29;20419;-45
2022/10/28 10:01:55;;;;;;;12.67;4.83;;;19.90;99.90;;;;;;4916836;29;20831;-46
2022/10/28 10:04:26;;;;;;;9.83;3.83;;;20.10;1.00;;;;;;4917144;29;20430;-45
2022/10/28 10:06:59;;;;;;;20.53;4.60;;;20.40;1.00;;;;;;4929785;29;20558;-45
2022/10/28 10:09:27;;;;;;;11.23;4.23;;;20.60;99.90;;;;;;4936283;29;20489;-46
2022/10/28 10:12:09;;;;;;;14.87;4.23;;;20.90;1.00;;;;;;4936067;29;20761;-46
2022/10/28 10:14:44;;;;;;;11.27;4.70;;;21.30;1.00;;;;;;4935462;29;20442;-45
2022/10/28 10:17:46;;;;;;;10.10;4.20;;;21.50;1.00;;;;;;4935574;29;20527;-45
2022/10/28 10:20:18;;;;;;;8.47;3.77;;;21.70;1.00;;;;;;4935990;29;20430;-45
2022/10/28 10:22:45;;;;;;;14.33;4.50;;;22.10;1.00;;;;;;4935925;29;20407;-45
2022/10/28 10:25:17;;;;;;;6.20;4.17;;;22.80;1.00;;;;;;4935816;29;20565;-45
2022/10/28 10:28:14;;;;;;;17.57;4.57;;;23.30;1.00;;;;;;4935430;29;20469;-45
2022/10/28 10:30:53;;;;;;;13.93;4.57;;;23.90;1.00;;;;;;4935275;29;20497;-45
2022/10/28 10:33:23;;;;;;;9.93;3.67;;;24.90;1.00;;;;;;4935330;29;20916;-47
2022/10/28 10:35:56;;;;;;;12.93;4.67;;;26.20;1.00;;;;;;4934710;29;20996;-46
2022/10/28 10:38:22;;;;;;;7.87;3.80;;;27.10;1.00;;;;;;4935582;29;20433;-51
2022/10/28 10:40:50;;;;;;;10.03;3.60;;;27.50;1.00;;;;;;4935754;29;20992;-47
2022/10/28 10:43:33;;;;;;;10.53;4.10;;;28.20;1.00;;;;;;4923868;29;20269;-50
2022/10/28 10:46:02;;;;;;;12.63;3.70;;;28.30;1.00;;;;;;4916410;29;20407;-46
2022/10/28 10:48:31;;;;;;;10.43;3.97;;;28.30;1.00;;;;;;4927404;29;20482;-45
2022/10/28 10:50:57;;;;;;;11.97;3.80;;;28.10;1.00;;;;;;4935263;29;21361;-46
2022/10/28 10:53:31;;;;;;;19.90;4.37;;;28.20;1.00;;;;;;4935587;29;20485;-47
2022/10/28 10:56:09;;;;;;;12.03;3.90;;;28.10;1.00;;;;;;4935425;29;20438;-46
2022/10/28 10:58:46;;;;;;;15.77;3.70;;;28.10;1.00;;;;;;4935444;29;20410;-47
2022/10/28 11:01:21;;;;;;;13.73;3.90;;;28.10;1.00;;;;;;4935262;29;20554;-47
2022/10/28 11:03:57;;;;;;;15.97;3.97;;;28.10;1.00;;;;;;4935398;29;20501;-47
2022/10/28 11:06:29;;;;;;;12.53;4.20;;;28.30;1.00;;;;;;4935276;29;20509;-47
2022/10/28 11:08:57;;;;;;;9.23;3.90;;;28.60;1.00;;;;;;4935361;29;20879;-47
2022/10/28 11:11:31;;;;;;;21.27;4.27;;;28.40;1.00;;;;;;4935151;29;20530;-46
2022/10/28 11:14:07;;;;;;;11.33;4.00;;;27.90;1.00;;;;;;4934804;29;21011;-46
2022/10/28 11:16:46;;;;;;;11.37;4.10;;;27.60;1.00;;;;;;4935201;29;20408;-46
2022/10/28 11:19:19;;;;;;;11.70;4.00;;;27.50;1.00;;;;;;4935149;29;20447;-46
2022/10/28 11:22:29;;;;;;;15.33;3.90;;;27.70;1.00;;;;;;4934810;29;20510;-46
2022/10/28 11:25:28;;;;;;;12.03;3.83;;;28.30;1.00;;;;;;4932600;29;20500;-48
2022/10/28 11:28:06;;;;;;;11.23;4.30;;;28.90;1.00;;;;;;4932443;29;20521;-46
2022/10/28 11:30:56;;;;;;;17.67;4.80;;;28.80;1.00;;;;;;4933126;29;20960;-46
2022/10/28 11:33:40;;;;;;;15.47;3.87;;;29.10;1.00;;;;;;4934752;29;20419;-48
2022/10/28 11:36:17;;;;;;;10.80;3.70;;;29.10;1.00;;;;;;4934912;29;20886;-46
2022/10/28 11:38:51;;;;;;;11.87;3.97;;;29.10;1.00;;;;;;4934693;29;20414;-47
2022/10/28 11:41:48;;;;;;;11.60;3.73;;;28.80;1.00;;;;;;4934662;29;20453;-48
2022/10/28 11:44:28;;;;;;;9.70;3.50;;;28.30;99.90;;;;;;4934642;29;20819;-48
2022/10/28 11:47:28;;;;;;;13.23;3.57;;;27.70;99.90;;;;;;4934366;29;20426;-46
2022/10/28 11:50:08;;;;;;;15.90;3.87;;;27.30;1.00;;;;;;4929629;29;20485;-47
2022/10/28 11:52:52;;;;;;;13.60;3.90;;;26.90;1.00;;;;;;4934767;29;21117;-47
2022/10/28 11:55:26;;;;;;;13.80;4.07;;;26.70;1.00;;;;;;4934498;29;20402;-47
2022/10/28 11:58:43;;;;;;;16.93;4.30;;;26.50;1.00;;;;;;4934231;29;20418;-47
2022/10/28 12:01:39;;;;;;;14.80;4.17;;;26.20;1.00;;;;;;4922554;29;20441;-47
2022/10/28 12:04:18;;;;;;;13.73;4.80;;;25.60;1.00;;;;;;4934295;29;20893;-46
2022/10/28 12:07:01;;;;;;;12.83;3.93;;;25.00;1.00;;;;;;4934489;29;20410;-47
2022/10/28 12:09:42;;;;;;;18.40;4.80;;;24.90;1.00;;;;;;4934184;29;20461;-47
2022/10/28 12:12:41;;;;;;;16.70;4.50;;;25.50;1.00;;;;;;4934119;29;20403;-47
2022/10/28 12:15:24;;;;;;;16.70;4.70;;;26.80;1.00;;;;;;4934198;29;20414;-47
2022/10/28 12:17:55;;;;;;;11.20;4.07;;;28.10;1.00;;;;;;4933982;29;20525;-47
2022/10/28 12:20:30;;;;;;;16.33;4.20;;;29.20;1.00;;;;;;4933963;29;20442;-46
2022/10/28 12:22:59;;;;;;;14.87;4.20;;;29.20;99.90;;;;;;4934001;29;20417;-45
2022/10/28 12:25:29;;;;;;;10.73;3.90;;;29.00;99.90;;;;;;4934047;29;20402;-47
2022/10/28 12:27:58;;;;;;;21.73;4.13;;;28.30;99.90;;;;;;4934040;29;20415;-47
2022/10/28 12:30:29;;;;;;;13.27;4.57;;;27.90;99.90;;;;;;4933672;29;20470;-47
2022/10/28 12:33:00;;;;;;;9.87;3.73;;;27.40;99.90;;;;;;4933955;29;20944;-47
2022/10/28 12:35:39;;;;;;;16.07;4.23;;;26.90;99.90;;;;;;4933908;29;20422;-47
2022/10/28 12:38:22;;;;;;;13.70;3.97;;;26.40;99.90;;;;;;4929696;29;20827;-46
2022/10/28 12:40:58;;;;;;;9.13;4.37;;;25.90;99.90;;;;;;4933453;29;20757;-47
2022/10/28 12:43:33;;;;;;;8.50;3.70;;;25.50;1.00;;;;;;4933280;29;20448;-46
2022/10/28 12:45:59;;;;;;;11.30;4.33;;;25.90;1.00;;;;;;4933023;29;20443;-46
2022/10/28 12:48:32;;;;;;;10.70;4.00;;;26.70;1.00;;;;;;4931444;29;20474;-46
2022/10/28 12:51:20;;;;;;;20.77;3.97;;;27.80;1.00;;;;;;4933534;29;20907;-46
2022/10/28 12:54:41;;;;;;;10.90;3.80;;;28.90;1.00;;;;;;4929888;29;20450;-47
2022/10/28 12:57:15;;;;;;;12.83;4.40;;;29.50;99.90;;;;;;4910031;29;20439;-45
2022/10/28 12:59:42;;;;;;;15.63;4.90;;;28.90;99.90;;;;;;4932158;29;21003;-47
2022/10/28 13:02:34;;;;;;;16.30;4.60;;;28.50;99.90;;;;;;4930728;29;20441;-45
2022/10/28 13:05:02;;;;;;;15.10;4.03;;;28.30;99.90;;;;;;4933281;29;20465;-47
2022/10/28 13:07:42;;;;;;;13.83;5.77;;;27.90;99.90;;;;;;4931879;29;21203;-45
2022/10/28 13:10:23;;;;;;;12.83;4.00;;;28.00;99.90;;;;;;4931950;29;20513;-46